createdAt,value
2018-09-27T00:01:35.116Z,3.60
2018-09-27T00:04:03.196Z,6.58
2018-09-27T00:06:31.292Z,3.47
2018-09-27T00:08:59.415Z,4.78
2018-09-27T00:11:27.512Z,8.85
2018-09-27T00:13:55.617Z,5.12
2018-09-27T00:16:23.703Z,4.58
2018-09-27T00:18:51.791Z,7.30
2018-09-27T00:21:19.866Z,5.95
2018-09-27T00:23:47.940Z,5.25
2018-09-27T00:26:16.012Z,4.87
2018-09-27T00:28:44.087Z,3.62
2018-09-27T00:31:12.163Z,3.87
2018-09-27T00:33:40.239Z,5.95
2018-09-27T00:36:08.328Z,4.95
2018-09-27T00:38:36.473Z,4.65
2018-09-27T00:41:04.629Z,2.77
2018-09-27T00:43:32.731Z,5.35
2018-09-27T00:46:00.815Z,4.53
2018-09-27T00:48:28.904Z,6.33
2018-09-27T00:50:57.012Z,5.53
2018-09-27T00:53:25.091Z,3.83
2018-09-27T00:55:53.178Z,2.95
2018-09-27T00:58:21.252Z,5.37
2018-09-27T01:00:49.690Z,4.12
2018-09-27T01:03:17.794Z,7.97
2018-09-27T01:05:45.863Z,4.83
2018-09-27T01:08:13.926Z,8.88
2018-09-27T01:10:42.168Z,4.92
2018-09-27T01:13:10.243Z,7.20
2018-09-27T01:15:38.358Z,7.03
2018-09-27T01:18:06.717Z,5.40
2018-09-27T01:20:34.812Z,5.40
2018-09-27T01:23:02.879Z,4.78
2018-09-27T01:25:30.961Z,6.58
2018-09-27T01:27:59.091Z,5.30
2018-09-27T01:30:27.200Z,4.97
2018-09-27T01:32:55.268Z,3.67
2018-09-27T01:35:23.349Z,3.67
2018-09-27T01:37:51.412Z,3.65
2018-09-27T01:40:19.480Z,7.25
2018-09-27T01:42:47.556Z,2.55
2018-09-27T01:45:15.626Z,4.70
2018-09-27T01:47:43.713Z,5.62
2018-09-27T01:50:11.785Z,3.20
2018-09-27T01:52:40.032Z,3.33
2018-09-27T01:55:08.131Z,3.02
2018-09-27T01:57:36.207Z,9.95
2018-09-27T02:00:04.306Z,4.53
2018-09-27T02:02:32.416Z,5.25
2018-09-27T02:05:00.500Z,4.35
2018-09-27T02:07:28.571Z,5.00
2018-09-27T02:09:56.647Z,5.60
2018-09-27T02:12:24.731Z,4.42
2018-09-27T02:14:52.808Z,5.30
2018-09-27T02:17:20.874Z,4.67
2018-09-27T02:19:48.971Z,6.97
2018-09-27T02:22:17.116Z,7.35
2018-09-27T02:24:45.196Z,6.25
2018-09-27T02:27:13.272Z,10.78
2018-09-27T02:29:41.707Z,4.10
2018-09-27T02:32:09.816Z,7.67
2018-09-27T02:34:37.941Z,5.05
2018-09-27T02:37:06.025Z,5.15
2018-09-27T02:39:34.090Z,5.72
2018-09-27T02:42:02.180Z,12.47
2018-09-27T02:44:30.265Z,3.80
2018-09-27T02:46:58.404Z,7.55
2018-09-27T02:49:26.483Z,3.10
2018-09-27T02:51:54.655Z,4.87
2018-09-27T02:54:22.775Z,2.77
2018-09-27T02:56:50.838Z,6.83
2018-09-27T02:59:18.931Z,6.15
2018-09-27T03:01:47.003Z,6.35
2018-09-27T03:04:15.079Z,5.22
2018-09-27T03:06:43.155Z,6.90
2018-09-27T03:09:12.318Z,5.42
2018-09-27T03:11:40.473Z,3.62
2018-09-27T03:14:08.567Z,6.45
2018-09-27T03:16:36.635Z,4.72
2018-09-27T03:19:04.708Z,5.90
2018-09-27T03:21:32.803Z,5.55
2018-09-27T03:24:00.890Z,8.43
2018-09-27T03:26:28.955Z,6.22
2018-09-27T03:28:57.046Z,5.95
2018-09-27T03:31:25.209Z,3.45
2018-09-27T03:33:53.292Z,4.15
2018-09-27T03:36:21.445Z,3.67
2018-09-27T03:38:49.512Z,6.62
2018-09-27T03:41:17.623Z,6.35
2018-09-27T03:43:45.700Z,6.42
2018-09-27T03:46:13.801Z,4.75
2018-09-27T03:48:41.944Z,3.95
2018-09-27T03:51:10.021Z,3.47
2018-09-27T03:53:38.092Z,3.92
2018-09-27T03:56:06.235Z,4.92
2018-09-27T03:58:34.305Z,7.40
2018-09-27T04:01:02.390Z,3.75
2018-09-27T04:03:30.520Z,4.15
2018-09-27T04:05:58.625Z,7.92
2018-09-27T04:08:26.736Z,4.30
2018-09-27T04:10:54.871Z,5.72
2018-09-27T04:13:23.007Z,4.75
2018-09-27T04:15:51.154Z,6.10
2018-09-27T04:18:19.178Z,5.87
2018-09-27T04:20:50.525Z,5.17
2018-09-27T04:23:19.532Z,4.35
2018-09-27T04:25:47.668Z,3.87
2018-09-27T04:28:15.879Z,6.55
2018-09-27T04:30:44.006Z,6.20
2018-09-27T04:33:12.087Z,5.25
2018-09-27T04:35:40.168Z,5.80
2018-09-27T04:38:08.259Z,4.20
2018-09-27T04:40:36.413Z,6.65
2018-09-27T04:43:04.782Z,5.67
2018-09-27T04:45:32.887Z,5.80
2018-09-27T04:48:00.979Z,6.25
2018-09-27T04:50:29.044Z,3.50
2018-09-27T04:52:57.116Z,4.78
2018-09-27T04:55:25.184Z,6.90
2018-09-27T04:57:53.271Z,4.78
2018-09-27T05:00:21.323Z,5.17
2018-09-27T05:02:49.404Z,6.92
2018-09-27T05:05:17.468Z,4.00
2018-09-27T05:07:45.530Z,4.53
2018-09-27T05:10:13.604Z,4.83
2018-09-27T05:12:41.703Z,5.72
2018-09-27T05:15:09.773Z,5.42
2018-09-27T05:17:37.847Z,4.10
2018-09-27T05:20:05.920Z,6.12
2018-09-27T05:22:33.989Z,5.37
2018-09-27T05:25:02.127Z,6.20
2018-09-27T05:27:30.207Z,5.67
2018-09-27T05:29:58.304Z,5.72
2018-09-27T05:32:26.391Z,7.47
2018-09-27T05:34:54.470Z,6.67
2018-09-27T05:37:22.547Z,7.45
2018-09-27T05:39:50.643Z,8.10
2018-09-27T05:42:18.699Z,10.80
2018-09-27T05:44:46.782Z,7.78
2018-09-27T05:47:14.873Z,6.65
2018-09-27T05:49:42.962Z,7.42
2018-09-27T05:52:11.184Z,13.05
2018-09-27T05:54:39.404Z,7.03
2018-09-27T05:57:07.508Z,7.47
2018-09-27T05:59:35.590Z,7.25
2018-09-27T06:02:03.689Z,9.20
2018-09-27T06:04:31.794Z,7.62
2018-09-27T06:06:59.878Z,6.45
2018-09-27T06:09:28.020Z,8.68
2018-09-27T06:11:56.044Z,7.22
2018-09-27T06:14:24.127Z,7.35
2018-09-27T06:16:52.232Z,8.85
2018-09-27T06:19:20.336Z,10.78
2018-09-27T06:21:48.370Z,8.63
2018-09-27T06:24:16.447Z,7.60
2018-09-27T06:26:44.527Z,7.12
2018-09-27T06:29:12.591Z,6.30
2018-09-27T06:31:40.669Z,9.28
2018-09-27T06:34:08.738Z,5.97
2018-09-27T06:36:36.827Z,5.40
2018-09-27T06:39:07.028Z,7.08
2018-09-27T06:41:35.089Z,7.85
2018-09-27T06:44:03.175Z,5.78
2018-09-27T06:46:31.235Z,6.70
2018-09-27T06:48:59.307Z,6.85
2018-09-27T06:51:27.417Z,8.15
2018-09-27T06:53:55.522Z,5.90
2018-09-27T06:56:23.646Z,6.72
2018-09-27T06:58:51.712Z,8.75
2018-09-27T07:01:19.806Z,9.48
2018-09-27T07:03:47.879Z,5.70
2018-09-27T07:06:15.972Z,7.70
2018-09-27T07:08:44.329Z,6.37
2018-09-27T07:11:12.336Z,7.50
2018-09-27T07:13:40.402Z,9.73
2018-09-27T07:16:08.475Z,13.00
2018-09-27T07:18:36.674Z,9.75
2018-09-27T07:21:04.719Z,9.35
2018-09-27T07:23:32.807Z,9.40
2018-09-27T07:26:00.879Z,8.43
2018-09-27T07:28:28.941Z,10.50
2018-09-27T07:30:57.049Z,10.40
2018-09-27T07:33:25.079Z,11.78
2018-09-27T07:35:53.150Z,9.95
2018-09-27T07:38:21.253Z,11.88
2018-09-27T07:40:49.359Z,11.70
2018-09-27T07:43:17.440Z,10.50
2018-09-27T07:45:45.532Z,12.78
2018-09-27T07:48:13.604Z,10.55
2018-09-27T07:50:41.790Z,14.85
2018-09-27T07:53:09.787Z,13.48
2018-09-27T07:55:37.879Z,10.70
2018-09-27T07:58:06.060Z,9.78
2018-09-27T08:00:34.227Z,11.10
2018-09-27T08:03:02.415Z,12.70
2018-09-27T08:05:30.529Z,13.98
2018-09-27T08:07:58.725Z,11.78
2018-09-27T08:10:26.794Z,8.40
2018-09-27T08:12:54.948Z,10.28
2018-09-27T08:15:23.190Z,12.35
2018-09-27T08:17:51.299Z,8.03
2018-09-27T08:20:19.445Z,13.15
2018-09-27T08:22:47.504Z,10.20
2018-09-27T08:25:15.591Z,9.80
2018-09-27T08:27:43.680Z,12.23
2018-09-27T08:30:11.808Z,9.80
2018-09-27T08:32:39.966Z,10.40
2018-09-27T08:35:07.960Z,12.00
2018-09-27T08:37:36.027Z,9.03
2018-09-27T08:40:04.148Z,13.57
2018-09-27T08:42:32.249Z,9.90
2018-09-27T08:45:00.443Z,13.57
2018-09-27T08:47:28.428Z,13.80
2018-09-27T08:49:56.526Z,11.23
2018-09-27T08:52:24.602Z,14.58
2018-09-27T08:54:52.710Z,12.60
2018-09-27T08:57:20.830Z,11.47
2018-09-27T08:59:48.933Z,12.67
2018-09-27T09:02:17.311Z,10.30
2018-09-27T09:04:45.483Z,11.60
2018-09-27T09:07:13.628Z,13.40
2018-09-27T09:09:41.718Z,13.03
2018-09-27T09:12:09.881Z,9.40
2018-09-27T09:14:37.936Z,13.73
2018-09-27T09:17:06.746Z,12.70
2018-09-27T09:19:35.299Z,12.00
2018-09-27T09:22:03.372Z,7.30
2018-09-27T09:24:31.538Z,9.87
2018-09-27T09:26:59.679Z,10.10
2018-09-27T09:29:27.942Z,10.47
2018-09-27T09:31:56.080Z,16.83
2018-09-27T09:34:24.287Z,8.00
2018-09-27T09:36:52.435Z,7.80
2018-09-27T09:39:20.579Z,13.90
2018-09-27T09:41:48.748Z,8.17
2018-09-27T09:44:16.908Z,8.40
2018-09-27T09:46:45.073Z,8.47
2018-09-27T09:49:13.268Z,8.63
2018-09-27T09:51:41.452Z,11.33
2018-09-27T09:54:09.796Z,13.60
2018-09-27T09:56:37.960Z,12.50
2018-09-27T09:59:06.160Z,8.60
2018-09-27T10:01:34.305Z,9.20
2018-09-27T10:04:02.452Z,10.57
2018-09-27T10:06:30.644Z,9.67
2018-09-27T10:08:58.839Z,8.87
2018-09-27T10:11:26.995Z,10.40
2018-09-27T10:13:55.176Z,10.60
2018-09-27T10:16:23.343Z,14.30
2018-09-27T10:18:51.507Z,10.73
2018-09-27T10:21:19.727Z,14.50
2018-09-27T10:23:48.632Z,11.50
2018-09-27T10:26:16.813Z,9.63
2018-09-27T10:28:45.016Z,10.10
2018-09-27T10:31:13.187Z,12.20
2018-09-27T10:33:41.339Z,10.23
2018-09-27T10:36:09.597Z,8.60
2018-09-27T10:38:37.867Z,11.03
2018-09-27T10:41:06.086Z,12.20
2018-09-27T10:43:34.276Z,10.53
2018-09-27T10:46:02.480Z,11.40
2018-09-27T10:48:30.661Z,9.30
2018-09-27T10:50:58.826Z,8.60
2018-09-27T10:53:27.044Z,10.90
2018-09-27T10:55:55.912Z,9.73
2018-09-27T10:58:24.116Z,12.77
2018-09-27T11:00:52.292Z,8.80
2018-09-27T11:03:20.528Z,10.40
2018-09-27T11:05:48.774Z,12.87
2018-09-27T11:08:16.973Z,10.00
2018-09-27T11:10:45.167Z,10.30
2018-09-27T11:13:13.415Z,10.93
2018-09-27T11:15:41.631Z,10.47
2018-09-27T11:18:09.863Z,9.70
2018-09-27T11:20:38.085Z,7.80
2018-09-27T11:23:06.266Z,9.50
2018-09-27T11:25:34.493Z,8.50
2018-09-27T11:28:02.648Z,7.77
2018-09-27T11:30:32.275Z,9.30
2018-09-27T11:33:00.450Z,9.37
2018-09-27T11:35:28.582Z,9.13
2018-09-27T11:37:56.689Z,6.67
2018-09-27T11:40:24.801Z,8.73
2018-09-27T11:42:52.954Z,6.27
2018-09-27T11:45:21.120Z,10.47
2018-09-27T11:47:49.310Z,6.70
2018-09-27T11:50:17.547Z,7.63
2018-09-27T11:52:45.680Z,5.13
2018-09-27T11:55:13.911Z,9.30
2018-09-27T11:57:42.105Z,11.37
2018-09-27T12:00:10.335Z,5.70
2018-09-27T12:02:38.732Z,4.37
2018-09-27T12:05:06.904Z,8.00
2018-09-27T12:07:35.057Z,7.20
2018-09-27T12:10:03.224Z,9.87
2018-09-27T12:12:31.379Z,7.97
2018-09-27T12:14:59.569Z,6.90
2018-09-27T12:17:27.688Z,8.43
2018-09-27T12:19:55.764Z,6.50
2018-09-27T12:22:23.843Z,7.27
2018-09-27T12:24:51.976Z,6.30
2018-09-27T12:27:20.080Z,7.53
2018-09-27T12:29:48.172Z,6.30
2018-09-27T12:32:16.240Z,7.40
2018-09-27T12:34:44.348Z,5.60
2018-09-27T12:37:12.422Z,9.00
2018-09-27T12:39:40.533Z,6.90
2018-09-27T12:42:08.725Z,6.90
2018-09-27T12:44:36.663Z,5.93
2018-09-27T12:47:04.760Z,5.00
2018-09-27T12:49:32.847Z,5.70
2018-09-27T12:52:01.129Z,6.00
2018-09-27T12:54:28.999Z,5.63
2018-09-27T12:56:57.119Z,4.93
2018-09-27T12:59:25.285Z,5.93
2018-09-27T13:01:53.468Z,3.60
2018-09-27T13:04:21.500Z,5.80
2018-09-27T13:06:49.614Z,6.53
2018-09-27T13:09:17.856Z,5.60
2018-09-27T13:11:45.849Z,6.00
2018-09-27T13:14:14.070Z,3.90
2018-09-27T13:16:42.244Z,4.30
2018-09-27T13:19:10.492Z,6.60
2018-09-27T13:21:38.672Z,6.30
2018-09-27T13:24:06.813Z,6.23
2018-09-27T13:26:35.078Z,8.50
2018-09-27T13:29:03.213Z,6.13
2018-09-27T13:31:31.514Z,5.27
2018-09-27T13:33:59.719Z,5.10
2018-09-27T13:36:27.856Z,3.83
2018-09-27T13:38:56.093Z,3.93
2018-09-27T13:41:24.239Z,6.27
2018-09-27T13:43:52.424Z,3.93
2018-09-27T13:46:20.575Z,3.90
2018-09-27T13:48:48.814Z,4.77
2018-09-27T13:51:16.853Z,4.10
2018-09-27T13:53:45.025Z,4.03
2018-09-27T13:56:13.188Z,6.30
2018-09-27T13:58:41.364Z,4.00
2018-09-27T14:01:09.598Z,3.50
2018-09-27T14:03:37.604Z,4.30
2018-09-27T14:06:05.699Z,4.93
2018-09-27T14:08:33.804Z,5.90
2018-09-27T14:11:01.899Z,4.23
2018-09-27T14:13:30.056Z,4.73
2018-09-27T14:15:58.180Z,5.83
2018-09-27T14:18:26.273Z,3.40
2018-09-27T14:23:28.872Z,5.43
2018-09-27T14:25:56.952Z,5.30
2018-09-27T14:28:25.136Z,7.90
2018-09-27T14:30:53.368Z,7.50
2018-09-27T14:33:21.568Z,3.83
2018-09-27T14:35:49.764Z,5.63
2018-09-27T14:38:17.982Z,5.83
2018-09-27T14:40:46.177Z,3.57
2018-09-27T14:43:14.365Z,3.97
2018-09-27T14:45:42.579Z,4.53
2018-09-27T14:48:10.965Z,2.57
2018-09-27T14:50:39.200Z,3.47
2018-09-27T14:53:07.350Z,4.03
2018-09-27T14:55:36.256Z,4.90
2018-09-27T14:58:04.476Z,3.50
2018-09-27T15:00:32.698Z,5.17
2018-09-27T15:03:00.864Z,3.50
2018-09-27T15:05:29.071Z,3.73
2018-09-27T15:07:57.270Z,4.00
2018-09-27T15:10:25.600Z,3.67
2018-09-27T15:12:53.830Z,3.60
2018-09-27T15:15:22.004Z,3.67
2018-09-27T15:17:50.245Z,3.97
2018-09-27T15:20:18.391Z,3.23
2018-09-27T15:22:46.665Z,6.30
2018-09-27T15:25:14.871Z,6.87
2018-09-27T15:27:42.981Z,2.50
2018-09-27T15:30:11.047Z,2.80
2018-09-27T15:32:39.136Z,2.50
2018-09-27T15:35:07.247Z,3.73
2018-09-27T15:37:35.389Z,3.03
2018-09-27T15:40:03.967Z,2.90
2018-09-27T15:42:32.056Z,2.67
2018-09-27T15:45:00.288Z,3.20
2018-09-27T15:47:28.465Z,3.20
2018-09-27T15:49:56.664Z,3.13
2018-09-27T15:52:24.918Z,3.27
2018-09-27T15:54:53.752Z,1.70
2018-09-27T15:57:21.972Z,2.57
2018-09-27T15:59:50.160Z,3.73
2018-09-27T16:02:18.333Z,3.43
2018-09-27T16:04:46.601Z,3.73
2018-09-27T16:07:14.860Z,3.57
2018-09-27T16:09:43.153Z,3.57
2018-09-27T16:12:11.413Z,10.37
2018-09-27T16:14:39.857Z,4.53
2018-09-27T16:17:07.896Z,2.47
2018-09-27T16:19:35.963Z,3.47
2018-09-27T16:22:04.127Z,2.43
2018-09-27T16:24:32.213Z,6.40
2018-09-27T16:27:00.309Z,2.73
2018-09-27T16:29:28.444Z,2.13
2018-09-27T16:31:56.476Z,2.80
2018-09-27T16:34:24.598Z,2.40
2018-09-27T16:36:52.744Z,4.23
2018-09-27T16:39:20.828Z,3.10
2018-09-27T16:41:48.913Z,4.33
2018-09-27T16:44:16.979Z,1.80
2018-09-27T16:46:45.112Z,2.83
2018-09-27T16:49:13.183Z,2.00
2018-09-27T16:51:41.289Z,3.43
2018-09-27T16:54:09.420Z,2.93
2018-09-27T16:56:37.673Z,3.30
2018-09-27T16:59:05.760Z,4.00
2018-09-27T17:01:33.895Z,5.30
2018-09-27T17:04:02.004Z,2.97
2018-09-27T17:06:30.284Z,2.67
2018-09-27T17:08:58.501Z,5.77
2018-09-27T17:11:27.086Z,3.27
2018-09-27T17:13:55.249Z,3.33
2018-09-27T17:16:30.912Z,5.30
2018-09-27T17:22:18.223Z,3.10
2018-09-27T17:24:47.688Z,3.00
2018-09-27T17:27:21.425Z,4.53
2018-09-27T17:29:52.396Z,6.47
2018-09-27T17:32:21.065Z,3.83
2018-09-27T17:34:52.481Z,3.17
2018-09-27T17:37:21.723Z,5.73
2018-09-27T17:39:52.901Z,2.03
2018-09-27T17:42:27.820Z,4.30
2018-09-27T17:44:56.183Z,3.17
2018-09-27T17:47:30.948Z,5.43
2018-09-27T17:50:00.810Z,4.83
2018-09-27T17:55:03.075Z,4.10
2018-09-27T17:57:34.125Z,2.83
2018-09-27T18:00:04.749Z,4.90
2018-09-27T18:02:36.069Z,3.60
2018-09-27T18:05:18.812Z,3.23
2018-09-27T18:07:35.116Z,2.63
2018-09-27T18:10:04.392Z,5.80
2018-09-27T18:12:33.796Z,4.13
2018-09-27T18:15:06.388Z,4.23
2018-09-27T18:17:38.934Z,3.03
2018-09-27T18:20:08.598Z,6.63
2018-09-27T18:22:39.013Z,5.20
2018-09-27T18:25:21.175Z,3.43
2018-09-27T18:27:51.798Z,4.53
2018-09-27T18:30:22.653Z,4.93
2018-09-27T18:32:51.044Z,5.23
2018-09-27T18:35:21.029Z,6.90
2018-09-27T18:37:51.003Z,3.70
2018-09-27T18:40:20.670Z,5.63
2018-09-27T18:42:49.892Z,3.30
2018-09-27T18:45:20.266Z,3.40
2018-09-27T18:47:49.573Z,5.53
2018-09-27T18:50:20.812Z,7.13
2018-09-27T18:52:51.807Z,4.83
2018-09-27T18:55:23.123Z,5.30
2018-09-27T18:57:51.539Z,4.00
2018-09-27T19:00:20.475Z,5.60
2018-09-27T19:03:27.108Z,5.20
2018-09-27T19:05:56.182Z,5.27
2018-09-27T19:08:24.779Z,3.73
2018-09-27T19:10:55.462Z,7.47
2018-09-27T19:13:26.654Z,8.03
2018-09-27T19:16:05.956Z,9.60
2018-09-27T19:18:39.327Z,3.90
2018-09-27T19:21:08.439Z,10.33
2018-09-27T19:23:40.088Z,6.97
2018-09-27T19:26:16.714Z,7.23
2018-09-27T19:28:56.034Z,4.27
2018-09-27T19:31:24.427Z,6.27
2018-09-27T19:33:53.017Z,4.43
2018-09-27T19:36:22.061Z,3.70
2018-09-27T19:38:50.612Z,7.27
2018-09-27T19:41:25.631Z,6.60
2018-09-27T19:44:02.716Z,4.37
2018-09-27T19:46:34.023Z,3.27
2018-09-27T19:49:06.514Z,4.00
2018-09-27T19:51:35.916Z,6.00
2018-09-27T19:54:10.044Z,4.90
2018-09-27T19:56:40.643Z,5.97
2018-09-27T19:59:11.492Z,5.73
2018-09-27T20:04:19.897Z,6.73
2018-09-27T20:06:52.178Z,3.90
2018-09-27T20:14:44.680Z,6.10
2018-09-27T20:17:15.076Z,5.33
2018-09-27T20:19:48.788Z,6.47
2018-09-27T20:22:22.602Z,6.43
2018-09-27T20:24:53.199Z,6.47
2018-09-27T20:27:27.398Z,4.00
2018-09-27T20:29:58.290Z,6.33
2018-09-27T20:32:29.300Z,6.50
2018-09-27T20:34:58.167Z,5.00
2018-09-27T20:37:29.284Z,6.97
2018-09-27T20:39:57.585Z,4.13
2018-09-27T20:42:36.135Z,5.03
2018-09-27T20:45:05.424Z,6.17
2018-09-27T20:47:35.497Z,4.30
2018-09-27T20:50:05.099Z,8.10
2018-09-27T20:52:35.257Z,3.50
2018-09-27T20:55:04.797Z,6.40
2018-09-27T20:57:35.685Z,5.80
2018-09-27T21:00:04.216Z,4.10
2018-09-27T21:02:33.701Z,4.77
2018-09-27T21:05:04.477Z,5.13
2018-09-27T21:07:33.761Z,6.10
2018-09-27T21:10:04.327Z,5.57
2018-09-27T21:12:33.904Z,2.87
2018-09-27T21:15:05.920Z,3.57
2018-09-27T21:17:34.819Z,4.70
2018-09-27T21:20:03.470Z,7.17
2018-09-27T21:22:32.290Z,7.07
2018-09-27T21:25:00.633Z,5.40
2018-09-27T21:27:30.553Z,4.33
2018-09-27T21:29:58.904Z,5.47
2018-09-27T21:32:27.330Z,7.73
2018-09-27T21:34:57.571Z,4.47
2018-09-27T21:37:25.927Z,3.13
2018-09-27T21:39:54.795Z,4.83
2018-09-27T21:42:23.623Z,5.60
2018-09-27T21:44:52.142Z,7.00
2018-09-27T21:47:20.385Z,4.10
2018-09-27T21:49:50.193Z,3.87
2018-09-27T21:52:19.148Z,6.80
2018-09-27T21:54:47.547Z,4.00
2018-09-27T21:57:16.972Z,5.30
2018-09-27T21:59:45.317Z,6.80
2018-09-27T22:02:16.126Z,6.00
2018-09-27T22:04:46.264Z,4.43
2018-09-27T22:07:15.978Z,5.33
2018-09-27T22:09:45.825Z,5.30
2018-09-27T22:12:14.126Z,5.07
2018-09-27T22:14:42.716Z,6.08
2018-09-27T22:17:13.475Z,4.97
2018-09-27T22:19:45.893Z,6.43
2018-09-27T22:22:16.204Z,7.13
2018-09-27T22:24:46.828Z,4.50
2018-09-27T22:27:16.485Z,6.83
2018-09-27T22:29:47.022Z,4.90
2018-09-27T22:32:17.146Z,4.73
2018-09-27T22:34:46.893Z,5.20
2018-09-27T22:37:16.689Z,7.10
2018-09-27T22:39:45.122Z,5.33
2018-09-27T22:42:16.943Z,7.30
2018-09-27T22:44:46.771Z,6.83
2018-09-27T22:47:15.517Z,6.42
2018-09-27T22:49:43.762Z,6.22
2018-09-27T22:52:12.697Z,6.03
2018-09-27T22:54:41.771Z,5.97
2018-09-27T22:57:10.111Z,4.33
2018-09-27T22:59:38.919Z,3.40
2018-09-27T23:02:07.223Z,5.55
2018-09-27T23:04:36.656Z,7.90
2018-09-27T23:07:04.868Z,6.57
2018-09-27T23:09:33.169Z,8.20
2018-09-27T23:12:01.333Z,4.83
2018-09-27T23:14:29.488Z,7.97
2018-09-27T23:16:57.736Z,7.00
2018-09-27T23:19:25.921Z,7.43
2018-09-27T23:21:54.140Z,7.60
2018-09-27T23:24:22.175Z,5.63
2018-09-27T23:26:50.252Z,5.83
2018-09-27T23:29:18.320Z,7.30
2018-09-27T23:31:46.384Z,5.40
2018-09-27T23:34:14.503Z,6.37
2018-09-27T23:36:42.602Z,15.32
2018-09-27T23:39:11.168Z,9.38
2018-09-27T23:41:39.639Z,8.50
2018-09-27T23:44:07.930Z,7.70
2018-09-27T23:46:36.035Z,6.03
2018-09-27T23:49:04.117Z,5.78
2018-09-27T23:51:32.191Z,6.37
2018-09-27T23:54:00.280Z,6.53
2018-09-27T23:56:28.361Z,7.50
2018-09-27T23:58:56.436Z,6.63
